Brownfield, TX (79316)

11:28 PM CDT on August 21, 2014 (GMT -0500)
WT_Meso Brownfield 2S | Change Station
CLOSE
Current Station
Personal Weather Station
Location: Brownfield, TX
Elevation: 3313 ft
Nearby Weather Stations

Elev 3313 ft 33.15 °N, 102.27 °W | Updated 33 minutes ago

Clear
Clear
77 °F
Feels Like 79 °F
N
16
Wind Variable Wind from SSW
Gusts 21.0 mph

Today
High -- | Low -- °F
--% Chance of Precip.
Yesterday
High -- | Low -- °F
Precip. -- in
7:16 AM 8:27 PM
Waning Crescent, 10% visible
Pressure 30.07 in
Visibility 10.0 miles
Clouds Clear
Heat Index 79 °F
Dew Point 60 °F
Humidity 58%
Rainfall -999.00 in
Snow Depth Not available.
UV 0 out of 12
Pollen 7.50 out of 12
Air Quality Not available.
Flu Activity Not available.
METAR KGNC 220415Z AUTO 22004KT 10SM CLR 25/14 A3007 RMK AO2 T02540144

More Conditions Fewer Conditions

Pressure 30.07 in
Visibility 10.0 miles
Clouds Clear
Heat Index 79 °F
Dew Point 60 °F
Humidity 58%
Rainfall -999.00 in
Snow Depth Not available.
UV 0 out of 12
Pollen 7.50 out of 12
Air Quality Not available.
Flu Activity Not available.
METAR KGNC 220415Z AUTO 22004KT 10SM CLR 25/14 A3007 RMK AO2 T02540144

More Conditions Fewer Conditions

Nowcast | as of 10:25 PM CDT on August 21, 2014

Through 1130 PM...scattered thunderstorms will continue to affect the southwestern South Plains. The strongest storms will produce locally heavy rainfall...wind gusts to 50 mph and frequent cloud to ground lightning. At 1023 PM...radar showed scattered thunderstorms from near Tokio southwest through Denver City to west of Seminole...moving northeastward around 10 mph. Rainfall totals of one quarter to one half inch will be common...with localized one inch plus amounts. Motorists should be alert for ponding of water on roadways and slow down accordingly.

×

10-Day Weather Forecast

Almanac

Astronomy

Aug. 21, 2014 Rise Set
Actual Time 7:16 AM CDT 8:27 PM CDT
Civil Twilight 6:50 AM CDT 8:53 PM CDT
Nautical Twilight 6:19 AM CDT 9:24 PM CDT
Astronomical Twilight 5:47 AM CDT 9:55 PM CDT
Moon 3:53 AM CDT (8/21) 5:53 PM CDT (8/21)
Length of Visible Light 14h 03m
Length of Day
13h 11m
Tomorrow will be 1m 52s shorter.
Waning Crescent, 10% of the Moon is Illuminated
Aug 22
Waning Crescent
Aug 25
New
Sep 2
First Quarter
Sep 8
Full
Sep 15
Last Quarter

Today's Extremes

State Highs State Lows

Community

WunderPhotos

Upload Photos

1,746,128 photos uploaded!

Nearby

Snow Depth

Station Depth Elevation
No new snow has been reported.

Earthquake Activity

City Distance Mag. Time & Date
No recent earthquake activity has been reported nearby.
Minimum magnitude displayed is 2.5.

Coastal Water Temperatures

Place Temperature
No Stations Reporting

Nearby Weather Stations